sensor_id;sensor_type;location;lat;lon;timestamp;pressure;altitude;pressure_sealevel;temperature;humidity
57048;BME280;42934;54.294;18.598;2023-04-02T00:00:20;100363.72;;;2.14;82.91
57048;BME280;42934;54.294;18.598;2023-04-02T00:03:10;100374.09;;;2.12;82.97
57048;BME280;42934;54.294;18.598;2023-04-02T00:05:41;100373.22;;;2.24;83.33
57048;BME280;42934;54.294;18.598;2023-04-02T00:08:27;100372.38;;;2.13;82.80
57048;BME280;42934;54.294;18.598;2023-04-02T00:10:59;100371.44;;;2.34;83.38
57048;BME280;42934;54.294;18.598;2023-04-02T00:13:31;100380.94;;;2.33;82.52
57048;BME280;42934;54.294;18.598;2023-04-02T00:16:04;100383.53;;;2.32;82.34
57048;BME280;42934;54.294;18.598;2023-04-02T00:18:38;100385.28;;;2.17;82.55
57048;BME280;42934;54.294;18.598;2023-04-02T00:21:14;100385.28;;;2.20;82.50
57048;BME280;42934;54.294;18.598;2023-04-02T00:23:47;100394.78;;;2.17;82.35
57048;BME280;42934;54.294;18.598;2023-04-02T00:26:23;100396.50;;;2.28;83.04
57048;BME280;42934;54.294;18.598;2023-04-02T00:28:53;100402.56;;;2.24;82.55
57048;BME280;42934;54.294;18.598;2023-04-02T00:31:24;100405.97;;;2.37;82.81
57048;BME280;42934;54.294;18.598;2023-04-02T00:33:54;100411.19;;;2.30;82.62
57048;BME280;42934;54.294;18.598;2023-04-02T00:36:25;100410.31;;;2.27;83.18
57048;BME280;42934;54.294;18.598;2023-04-02T00:38:58;100419.84;;;2.18;83.77
57048;BME280;42934;54.294;18.598;2023-04-02T00:41:30;100416.41;;;2.02;85.54
57048;BME280;42934;54.294;18.598;2023-04-02T00:44:03;100421.56;;;2.22;85.01
57048;BME280;42934;54.294;18.598;2023-04-02T00:46:42;100418.97;;;2.19;84.63
57048;BME280;42934;54.294;18.598;2023-04-02T00:49:21;100425.06;;;1.84;85.26
57048;BME280;42934;54.294;18.598;2023-04-02T00:51:53;100426.78;;;1.99;85.96
57048;BME280;42934;54.294;18.598;2023-04-02T00:54:29;100409.50;;;2.10;85.16
57048;BME280;42934;54.294;18.598;2023-04-02T00:56:59;100414.66;;;2.05;84.83
57048;BME280;42934;54.294;18.598;2023-04-02T00:59:31;100420.72;;;2.04;85.23
57048;BME280;42934;54.294;18.598;2023-04-02T01:02:21;100418.13;;;2.15;84.98
57048;BME280;42934;54.294;18.598;2023-04-02T01:04:54;100418.13;;;2.09;84.84
57048;BME280;42934;54.294;18.598;2023-04-02T01:07:46;100424.16;;;2.13;84.60
57048;BME280;42934;54.294;18.598;2023-04-02T01:10:41;100425.00;;;2.12;83.62
57048;BME280;42934;54.294;18.598;2023-04-02T01:13:21;100420.75;;;1.95;82.87
57048;BME280;42934;54.294;18.598;2023-04-02T01:15:54;100429.34;;;1.88;82.56
57048;BME280;42934;54.294;18.598;2023-04-02T01:18:36;100436.25;;;1.94;82.61
57048;BME280;42934;54.294;18.598;2023-04-02T01:21:30;100443.19;;;1.95;82.52
57048;BME280;42934;54.294;18.598;2023-04-02T01:24:05;100438.84;;;1.88;83.79
57048;BME280;42934;54.294;18.598;2023-04-02T01:26:51;100444.91;;;1.80;83.95
57048;BME280;42934;54.294;18.598;2023-04-02T01:29:26;100447.50;;;1.91;83.54
57048;BME280;42934;54.294;18.598;2023-04-02T01:31:59;100448.38;;;1.92;84.23
57048;BME280;42934;54.294;18.598;2023-04-02T01:34:29;100446.63;;;2.01;82.91
57048;BME280;42934;54.294;18.598;2023-04-02T01:37:09;100449.22;;;1.98;83.56
57048;BME280;42934;54.294;18.598;2023-04-02T01:39:58;100451.81;;;2.06;83.41
57048;BME280;42934;54.294;18.598;2023-04-02T01:42:31;100454.41;;;1.98;83.17
57048;BME280;42934;54.294;18.598;2023-04-02T01:45:04;100457.84;;;1.99;83.28
57048;BME280;42934;54.294;18.598;2023-04-02T01:47:37;100467.34;;;2.08;82.84
57048;BME280;42934;54.294;18.598;2023-04-02T01:50:20;100463.03;;;2.03;82.17
57048;BME280;42934;54.294;18.598;2023-04-02T01:52:52;100466.44;;;2.12;82.30
57048;BME280;42934;54.294;18.598;2023-04-02T01:55:30;100469.06;;;1.98;81.60
57048;BME280;42934;54.294;18.598;2023-04-02T01:58:01;100474.25;;;1.87;82.04
57048;BME280;42934;54.294;18.598;2023-04-02T02:00:34;100476.84;;;1.98;82.01
57048;BME280;42934;54.294;18.598;2023-04-02T02:03:05;100488.06;;;2.03;81.89
57048;BME280;42934;54.294;18.598;2023-04-02T02:05:36;100478.56;;;1.97;81.79
57048;BME280;42934;54.294;18.598;2023-04-02T02:08:09;100487.19;;;1.92;81.69
57048;BME280;42934;54.294;18.598;2023-04-02T02:10:44;100500.13;;;1.96;81.01
57048;BME280;42934;54.294;18.598;2023-04-02T02:13:14;100492.38;;;1.92;81.87
57048;BME280;42934;54.294;18.598;2023-04-02T02:15:45;100496.69;;;2.02;81.30
57048;BME280;42934;54.294;18.598;2023-04-02T02:18:18;100506.16;;;2.00;81.74
57048;BME280;42934;54.294;18.598;2023-04-02T02:20:50;100506.19;;;2.01;81.20
57048;BME280;42934;54.294;18.598;2023-04-02T02:23:20;100508.75;;;1.97;81.30
57048;BME280;42934;54.294;18.598;2023-04-02T02:25:50;100524.31;;;2.09;81.11
57048;BME280;42934;54.294;18.598;2023-04-02T02:28:22;100483.72;;;2.02;80.91
57048;BME280;42934;54.294;18.598;2023-04-02T02:30:57;100526.06;;;2.15;81.27
57048;BME280;42934;54.294;18.598;2023-04-02T02:33:33;100527.75;;;2.11;81.58
57048;BME280;42934;54.294;18.598;2023-04-02T02:36:11;100532.94;;;1.94;82.09
57048;BME280;42934;54.294;18.598;2023-04-02T02:38:48;100527.75;;;1.93;83.27
57048;BME280;42934;54.294;18.598;2023-04-02T02:41:34;100523.44;;;2.07;82.86
57048;BME280;42934;54.294;18.598;2023-04-02T02:44:12;100526.03;;;2.10;83.07
57048;BME280;42934;54.294;18.598;2023-04-02T02:46:47;100524.31;;;2.17;82.89
57048;BME280;42934;54.294;18.598;2023-04-02T02:49:20;100536.41;;;2.13;81.71
57048;BME280;42934;54.294;18.598;2023-04-02T02:51:57;100531.19;;;2.05;82.04
57048;BME280;42934;54.294;18.598;2023-04-02T02:54:36;100529.50;;;2.11;82.24
57048;BME280;42934;54.294;18.598;2023-04-02T02:57:10;100537.28;;;2.09;81.84
57048;BME280;42934;54.294;18.598;2023-04-02T02:59:41;100532.06;;;2.11;81.88
57048;BME280;42934;54.294;18.598;2023-04-02T03:02:14;100540.72;;;2.26;81.94
57048;BME280;42934;54.294;18.598;2023-04-02T03:04:47;100539.00;;;2.24;82.12
57048;BME280;42934;54.294;18.598;2023-04-02T03:07:19;100542.44;;;2.04;81.61
57048;BME280;42934;54.294;18.598;2023-04-02T03:09:53;100550.22;;;2.21;81.51
57048;BME280;42934;54.294;18.598;2023-04-02T03:12:37;100549.34;;;2.21;82.30
57048;BME280;42934;54.294;18.598;2023-04-02T03:15:16;100557.13;;;2.18;82.08
57048;BME280;42934;54.294;18.598;2023-04-02T03:17:52;100552.78;;;2.11;82.63
57048;BME280;42934;54.294;18.598;2023-04-02T03:20:28;100558.00;;;2.18;82.38
57048;BME280;42934;54.294;18.598;2023-04-02T03:23:05;100556.25;;;2.22;82.29
57048;BME280;42934;54.294;18.598;2023-04-02T03:25:41;100566.63;;;2.39;82.19
57048;BME280;42934;54.294;18.598;2023-04-02T03:28:15;100568.34;;;2.37;82.42
57048;BME280;42934;54.294;18.598;2023-04-02T03:30:48;100579.59;;;2.33;82.62
57048;BME280;42934;54.294;18.598;2023-04-02T03:33:25;100576.97;;;2.31;81.57
57048;BME280;42934;54.294;18.598;2023-04-02T03:36:00;100579.56;;;2.16;81.66
57048;BME280;42934;54.294;18.598;2023-04-02T03:38:39;100582.13;;;2.17;81.88
57048;BME280;42934;54.294;18.598;2023-04-02T03:41:16;100585.63;;;2.24;81.14
57048;BME280;42934;54.294;18.598;2023-04-02T03:43:50;100589.91;;;2.14;80.84
57048;BME280;42934;54.294;18.598;2023-04-02T03:46:26;100598.56;;;2.22;81.25
57048;BME280;42934;54.294;18.598;2023-04-02T03:49:02;100590.81;;;2.36;80.70
57048;BME280;42934;54.294;18.598;2023-04-02T03:51:39;100603.75;;;2.27;81.07
57048;BME280;42934;54.294;18.598;2023-04-02T03:54:14;100609.78;;;2.31;81.32
57048;BME280;42934;54.294;18.598;2023-04-02T03:56:44;100612.38;;;2.29;81.33
57048;BME280;42934;54.294;18.598;2023-04-02T03:59:27;100616.69;;;2.22;81.39
57048;BME280;42934;54.294;18.598;2023-04-02T04:02:01;100628.78;;;2.31;81.16
57048;BME280;42934;54.294;18.598;2023-04-02T04:04:39;100638.28;;;2.29;81.07
57048;BME280;42934;54.294;18.598;2023-04-02T04:07:17;100642.63;;;2.30;80.85
57048;BME280;42934;54.294;18.598;2023-04-02T04:09:51;100640.88;;;2.40;81.00
57048;BME280;42934;54.294;18.598;2023-04-02T04:12:30;100653.81;;;2.26;81.58
57048;BME280;42934;54.294;18.598;2023-04-02T04:15:06;100659.00;;;2.29;81.29
57048;BME280;42934;54.294;18.598;2023-04-02T04:17:52;100671.09;;;2.22;81.44
57048;BME280;42934;54.294;18.598;2023-04-02T04:20:33;100664.19;;;2.35;81.16
57048;BME280;42934;54.294;18.598;2023-04-02T04:23:09;100672.84;;;2.33;81.38
57048;BME280;42934;54.294;18.598;2023-04-02T04:25:40;100670.28;;;2.39;81.17
57048;BME280;42934;54.294;18.598;2023-04-02T04:28:20;100678.88;;;2.35;81.03
57048;BME280;42934;54.294;18.598;2023-04-02T04:30:56;100676.25;;;2.10;81.30
57048;BME280;42934;54.294;18.598;2023-04-02T04:33:31;100671.94;;;2.14;81.95
57048;BME280;42934;54.294;18.598;2023-04-02T04:36:21;100691.81;;;2.28;81.72
57048;BME280;42934;54.294;18.598;2023-04-02T04:39:07;100694.44;;;2.44;80.68
57048;BME280;42934;54.294;18.598;2023-04-02T04:41:46;100693.53;;;2.17;81.20
57048;BME280;42934;54.294;18.598;2023-04-02T04:44:21;100697.88;;;2.29;81.14
57048;BME280;42934;54.294;18.598;2023-04-02T04:46:59;100701.38;;;2.42;80.67
57048;BME280;42934;54.294;18.598;2023-04-02T04:49:32;100697.03;;;2.38;80.43
57048;BME280;42934;54.294;18.598;2023-04-02T04:52:09;100708.28;;;2.47;80.33
57048;BME280;42934;54.294;18.598;2023-04-02T04:54:45;100714.25;;;2.20;80.71
57048;BME280;42934;54.294;18.598;2023-04-02T04:57:26;100714.31;;;2.26;80.22
57048;BME280;42934;54.294;18.598;2023-04-02T05:00:03;100720.34;;;2.38;80.58
57048;BME280;42934;54.294;18.598;2023-04-02T05:02:43;100721.22;;;2.34;80.42
57048;BME280;42934;54.294;18.598;2023-04-02T05:05:17;100721.25;;;2.41;80.69
57048;BME280;42934;54.294;18.598;2023-04-02T05:07:57;100722.09;;;2.42;80.86
57048;BME280;42934;54.294;18.598;2023-04-02T05:10:35;100741.06;;;2.35;80.30
57048;BME280;42934;54.294;18.598;2023-04-02T05:13:12;100733.31;;;2.42;80.57
57048;BME280;42934;54.294;18.598;2023-04-02T05:15:47;100740.25;;;2.51;79.93
57048;BME280;42934;54.294;18.598;2023-04-02T05:18:24;100746.25;;;2.32;80.95
57048;BME280;42934;54.294;18.598;2023-04-02T05:20:59;100749.69;;;2.31;81.13
57048;BME280;42934;54.294;18.598;2023-04-02T05:23:38;100755.78;;;2.39;80.95
57048;BME280;42934;54.294;18.598;2023-04-02T05:26:17;100756.59;;;2.28;81.64
57048;BME280;42934;54.294;18.598;2023-04-02T05:28:53;100763.56;;;2.39;81.04
57048;BME280;42934;54.294;18.598;2023-04-02T05:31:28;100765.25;;;2.31;81.31
57048;BME280;42934;54.294;18.598;2023-04-02T05:34:00;100768.72;;;2.46;81.37
57048;BME280;42934;54.294;18.598;2023-04-02T05:36:30;100777.34;;;2.41;81.05
57048;BME280;42934;54.294;18.598;2023-04-02T05:39:08;100778.22;;;2.34;81.72
57048;BME280;42934;54.294;18.598;2023-04-02T05:41:47;100784.28;;;2.36;81.76
57048;BME280;42934;54.294;18.598;2023-04-02T05:44:29;100792.84;;;2.25;81.76
57048;BME280;42934;54.294;18.598;2023-04-02T05:47:02;100790.25;;;2.22;82.18
57048;BME280;42934;54.294;18.598;2023-04-02T05:49:35;100793.78;;;2.40;82.24
57048;BME280;42934;54.294;18.598;2023-04-02T05:52:14;100797.25;;;2.48;81.82
57048;BME280;42934;54.294;18.598;2023-04-02T05:54:50;100796.38;;;2.43;82.86
57048;BME280;42934;54.294;18.598;2023-04-02T05:57:27;100800.72;;;2.48;82.52
57048;BME280;42934;54.294;18.598;2023-04-02T06:00:12;100806.78;;;2.57;81.99
57048;BME280;42934;54.294;18.598;2023-04-02T06:02:49;100809.34;;;2.43;82.84
57048;BME280;42934;54.294;18.598;2023-04-02T06:05:24;100815.44;;;2.57;82.12
57048;BME280;42934;54.294;18.598;2023-04-02T06:07:57;100814.53;;;2.46;81.89
57048;BME280;42934;54.294;18.598;2023-04-02T06:10:33;100819.69;;;2.37;82.66
57048;BME280;42934;54.294;18.598;2023-04-02T06:13:07;100825.75;;;2.39;82.54
57048;BME280;42934;54.294;18.598;2023-04-02T06:15:40;100836.13;;;2.46;82.46
57048;BME280;42934;54.294;18.598;2023-04-02T06:18:17;100832.66;;;2.41;82.43
57048;BME280;42934;54.294;18.598;2023-04-02T06:20:49;100841.28;;;2.46;81.88
57048;BME280;42934;54.294;18.598;2023-04-02T06:23:20;100838.72;;;2.48;82.23
57048;BME280;42934;54.294;18.598;2023-04-02T06:25:58;100847.38;;;2.48;82.06
57048;BME280;42934;54.294;18.598;2023-04-02T06:28:35;100839.59;;;2.52;81.42
57048;BME280;42934;54.294;18.598;2023-04-02T06:31:09;100847.38;;;2.55;81.96
57048;BME280;42934;54.294;18.598;2023-04-02T06:33:39;100860.28;;;2.41;81.06
57048;BME280;42934;54.294;18.598;2023-04-02T06:36:09;100852.56;;;2.50;81.44
57048;BME280;42934;54.294;18.598;2023-04-02T06:38:40;100852.56;;;2.52;81.44
57048;BME280;42934;54.294;18.598;2023-04-02T06:41:19;100863.81;;;2.54;81.42
57048;BME280;42934;54.294;18.598;2023-04-02T06:44:01;100861.16;;;2.46;82.43
57048;BME280;42934;54.294;18.598;2023-04-02T06:46:53;100883.66;;;2.48;82.31
57048;BME280;42934;54.294;18.598;2023-04-02T06:49:30;100882.78;;;2.49;82.24
57048;BME280;42934;54.294;18.598;2023-04-02T06:52:09;100890.56;;;2.49;81.77
57048;BME280;42934;54.294;18.598;2023-04-02T06:54:41;100892.31;;;2.55;81.40
57048;BME280;42934;54.294;18.598;2023-04-02T06:57:13;100881.09;;;2.56;81.73
57048;BME280;42934;54.294;18.598;2023-04-02T06:59:44;100894.03;;;2.52;81.83
57048;BME280;42934;54.294;18.598;2023-04-02T07:02:29;100905.28;;;2.54;81.33
57048;BME280;42934;54.294;18.598;2023-04-02T07:05:04;100898.34;;;2.56;81.29
57048;BME280;42934;54.294;18.598;2023-04-02T07:07:39;100906.19;;;2.68;81.39
57048;BME280;42934;54.294;18.598;2023-04-02T07:10:11;100912.22;;;2.67;80.75
57048;BME280;42934;54.294;18.598;2023-04-02T07:12:41;100912.25;;;2.73;80.95
57048;BME280;42934;54.294;18.598;2023-04-02T07:15:11;100915.72;;;2.78;81.01
57048;BME280;42934;54.294;18.598;2023-04-02T07:17:43;100912.28;;;2.78;81.19
57048;BME280;42934;54.294;18.598;2023-04-02T07:20:24;100921.78;;;2.80;80.93
57048;BME280;42934;54.294;18.598;2023-04-02T07:22:56;100927.00;;;2.88;81.29
57048;BME280;42934;54.294;18.598;2023-04-02T07:25:26;100923.53;;;2.90;80.51
57048;BME280;42934;54.294;18.598;2023-04-02T07:27:57;100931.34;;;3.00;80.39
57048;BME280;42934;54.294;18.598;2023-04-02T07:30:26;100941.72;;;2.95;80.12
57048;BME280;42934;54.294;18.598;2023-04-02T07:32:55;100938.28;;;2.99;80.24
57048;BME280;42934;54.294;18.598;2023-04-02T07:35:24;100940.03;;;3.11;79.97
57048;BME280;42934;54.294;18.598;2023-04-02T07:37:53;100937.38;;;2.92;80.28
57048;BME280;42934;54.294;18.598;2023-04-02T07:40:22;100952.09;;;3.00;79.86
57048;BME280;42934;54.294;18.598;2023-04-02T07:42:52;100950.38;;;2.92;79.59
57048;BME280;42934;54.294;18.598;2023-04-02T07:45:22;100965.06;;;2.95;79.93
57048;BME280;42934;54.294;18.598;2023-04-02T07:47:51;100966.81;;;3.02;79.44
57048;BME280;42934;54.294;18.598;2023-04-02T07:50:20;100971.16;;;3.05;79.27
57048;BME280;42934;54.294;18.598;2023-04-02T07:52:50;100972.00;;;3.08;79.26
57048;BME280;42934;54.294;18.598;2023-04-02T07:55:19;100980.66;;;3.04;79.46
57048;BME280;42934;54.294;18.598;2023-04-02T07:57:50;100985.84;;;2.98;79.12
57048;BME280;42934;54.294;18.598;2023-04-02T08:00:22;101003.13;;;3.05;79.18
57048;BME280;42934;54.294;18.598;2023-04-02T08:02:52;100992.75;;;2.94;78.68
57048;BME280;42934;54.294;18.598;2023-04-02T08:05:21;101004.81;;;2.89;78.58
57048;BME280;42934;54.294;18.598;2023-04-02T08:07:55;100999.59;;;2.88;78.79
57048;BME280;42934;54.294;18.598;2023-04-02T08:10:24;101004.88;;;3.05;79.12
57048;BME280;42934;54.294;18.598;2023-04-02T08:12:53;101004.84;;;2.95;78.37
57048;BME280;42934;54.294;18.598;2023-04-02T08:15:24;101009.19;;;3.04;79.19
57048;BME280;42934;54.294;18.598;2023-04-02T08:17:53;101015.22;;;2.99;78.95
57048;BME280;42934;54.294;18.598;2023-04-02T08:20:23;101033.34;;;2.94;78.13
57048;BME280;42934;54.294;18.598;2023-04-02T08:22:52;101014.44;;;3.12;77.85
57048;BME280;42934;54.294;18.598;2023-04-02T08:25:21;101022.13;;;3.00;76.94
57048;BME280;42934;54.294;18.598;2023-04-02T08:27:51;101029.97;;;3.07;77.24
57048;BME280;42934;54.294;18.598;2023-04-02T08:30:20;101031.66;;;3.05;76.90
57048;BME280;42934;54.294;18.598;2023-04-02T08:32:50;101038.59;;;3.08;76.96
57048;BME280;42934;54.294;18.598;2023-04-02T08:35:19;101039.47;;;3.08;77.46
57048;BME280;42934;54.294;18.598;2023-04-02T08:37:50;101040.34;;;3.07;77.41
57048;BME280;42934;54.294;18.598;2023-04-02T08:40:22;101045.44;;;2.90;76.64
57048;BME280;42934;54.294;18.598;2023-04-02T08:46:05;101054.13;;;2.97;75.94
57048;BME280;42934;54.294;18.598;2023-04-02T08:48:41;101055.03;;;3.05;76.68
57048;BME280;42934;54.294;18.598;2023-04-02T08:51:21;101055.91;;;3.04;76.85
57048;BME280;42934;54.294;18.598;2023-04-02T08:53:53;101058.50;;;3.09;77.37
57048;BME280;42934;54.294;18.598;2023-04-02T08:56:28;101061.16;;;3.18;76.93
57048;BME280;42934;54.294;18.598;2023-04-02T08:59:02;101069.78;;;3.15;76.98
57048;BME280;42934;54.294;18.598;2023-04-02T09:01:41;101077.63;;;3.31;76.49
57048;BME280;42934;54.294;18.598;2023-04-02T09:04:19;101082.88;;;3.41;76.33
57048;BME280;42934;54.294;18.598;2023-04-02T09:06:51;101089.81;;;3.47;75.50
57048;BME280;42934;54.294;18.598;2023-04-02T09:09:22;101062.00;;;3.15;74.47
57048;BME280;42934;54.294;18.598;2023-04-02T09:11:54;101094.09;;;3.36;74.32
57048;BME280;42934;54.294;18.598;2023-04-02T09:14:35;101107.09;;;3.44;74.76
57048;BME280;42934;54.294;18.598;2023-04-02T09:17:16;101103.63;;;3.40;74.12
57048;BME280;42934;54.294;18.598;2023-04-02T09:19:53;101120.06;;;3.47;74.45
57048;BME280;42934;54.294;18.598;2023-04-02T09:22:25;101113.19;;;3.47;73.91
57048;BME280;42934;54.294;18.598;2023-04-02T09:24:56;101118.41;;;3.56;73.68
57048;BME280;42934;54.294;18.598;2023-04-02T09:27:26;101121.88;;;3.57;73.19
57048;BME280;42934;54.294;18.598;2023-04-02T09:29:58;101123.56;;;3.50;72.28
57048;BME280;42934;54.294;18.598;2023-04-02T09:32:42;101134.00;;;3.67;73.31
57048;BME280;42934;54.294;18.598;2023-04-02T09:35:16;101128.84;;;3.78;73.61
57048;BME280;42934;54.294;18.598;2023-04-02T09:38:18;101137.47;;;3.69;71.76
57048;BME280;42934;54.294;18.598;2023-04-02T09:40:56;101140.09;;;3.71;70.50
57048;BME280;42934;54.294;18.598;2023-04-02T09:43:27;101144.44;;;3.78;70.68
57048;BME280;42934;54.294;18.598;2023-04-02T09:46:00;101143.59;;;3.91;70.93
57048;BME280;42934;54.294;18.598;2023-04-02T09:48:31;101146.25;;;4.13;71.32
57048;BME280;42934;54.294;18.598;2023-04-02T09:51:14;101150.63;;;4.30;71.57
57048;BME280;42934;54.294;18.598;2023-04-02T09:53:45;101148.00;;;4.38;69.86
57048;BME280;42934;54.294;18.598;2023-04-02T09:56:18;101171.41;;;4.61;69.18
57048;BME280;42934;54.294;18.598;2023-04-02T09:59:02;101161.00;;;4.93;69.64
57048;BME280;42934;54.294;18.598;2023-04-02T10:01:33;101174.84;;;5.14;67.78
57048;BME280;42934;54.294;18.598;2023-04-02T10:04:05;101176.56;;;5.27;66.89
57048;BME280;42934;54.294;18.598;2023-04-02T10:06:55;101184.34;;;5.35;65.77
57048;BME280;42934;54.294;18.598;2023-04-02T10:09:29;101188.69;;;5.37;66.38
57048;BME280;42934;54.294;18.598;2023-04-02T10:12:00;101191.28;;;5.40;65.15
57048;BME280;42934;54.294;18.598;2023-04-02T10:14:33;101190.31;;;5.67;65.47
57048;BME280;42934;54.294;18.598;2023-04-02T10:17:09;101183.28;;;5.89;64.68
57048;BME280;42934;54.294;18.598;2023-04-02T10:19:44;101206.72;;;5.99;64.25
57048;BME280;42934;54.294;18.598;2023-04-02T10:22:19;101195.31;;;6.21;63.80
57048;BME280;42934;54.294;18.598;2023-04-02T10:24:49;101192.69;;;6.20;62.88
57048;BME280;42934;54.294;18.598;2023-04-02T10:27:26;101207.38;;;6.34;62.84
57048;BME280;42934;54.294;18.598;2023-04-02T10:30:13;101203.84;;;6.45;62.29
57048;BME280;42934;54.294;18.598;2023-04-02T10:32:47;101220.28;;;6.57;61.38
57048;BME280;42934;54.294;18.598;2023-04-02T10:35:29;101226.31;;;6.64;60.55
57048;BME280;42934;54.294;18.598;2023-04-02T10:41:19;101234.13;;;6.69;59.04
57048;BME280;42934;54.294;18.598;2023-04-02T10:46:55;101232.22;;;6.88;59.44
57048;BME280;42934;54.294;18.598;2023-04-02T10:49:34;101258.41;;;6.75;57.34
57048;BME280;42934;54.294;18.598;2023-04-02T10:52:09;101253.19;;;6.75;56.65
57048;BME280;42934;54.294;18.598;2023-04-02T10:54:46;101260.88;;;6.98;57.96
57048;BME280;42934;54.294;18.598;2023-04-02T10:57:26;101272.31;;;6.80;56.22
57048;BME280;42934;54.294;18.598;2023-04-02T11:00:02;101274.06;;;6.80;56.69
57048;BME280;42934;54.294;18.598;2023-04-02T11:02:40;101273.06;;;6.93;55.97
57048;BME280;42934;54.294;18.598;2023-04-02T11:05:17;101276.53;;;6.98;56.05
57048;BME280;42934;54.294;18.598;2023-04-02T11:07:56;101291.25;;;7.07;55.09
57048;BME280;42934;54.294;18.598;2023-04-02T11:10:32;101286.81;;;7.17;55.18
57048;BME280;42934;54.294;18.598;2023-04-02T11:13:07;101293.72;;;7.27;55.64
57048;BME280;42934;54.294;18.598;2023-04-02T11:15:42;101305.06;;;7.20;54.88
57048;BME280;42934;54.294;18.598;2023-04-02T11:18:23;101303.31;;;7.20;54.83
57048;BME280;42934;54.294;18.598;2023-04-02T11:21:02;101308.53;;;7.25;53.94
57048;BME280;42934;54.294;18.598;2023-04-02T11:23:55;101304.03;;;7.38;54.25
57048;BME280;42934;54.294;18.598;2023-04-02T11:26:36;101303.13;;;7.45;54.21
57048;BME280;42934;54.294;18.598;2023-04-02T11:29:19;101310.94;;;7.46;54.20
57048;BME280;42934;54.294;18.598;2023-04-02T11:32:05;101310.88;;;7.53;54.49
57048;BME280;42934;54.294;18.598;2023-04-02T11:37:59;101323.00;;;7.63;53.04
57048;BME280;42934;54.294;18.598;2023-04-02T11:40:46;101309.84;;;7.67;52.81
57048;BME280;42934;54.294;18.598;2023-04-02T11:43:49;101326.31;;;7.80;53.58
57048;BME280;42934;54.294;18.598;2023-04-02T11:46:43;101349.03;;;7.70;51.29
57048;BME280;42934;54.294;18.598;2023-04-02T11:49:32;101327.91;;;7.90;52.45
57048;BME280;42934;54.294;18.598;2023-04-02T11:52:04;101330.53;;;7.90;52.05
57048;BME280;42934;54.294;18.598;2023-04-02T11:54:40;101329.31;;;8.24;51.40
57048;BME280;42934;54.294;18.598;2023-04-02T11:57:19;101346.06;;;8.06;51.61
57048;BME280;42934;54.294;18.598;2023-04-02T12:00:10;101352.91;;;8.19;51.24
57048;BME280;42934;54.294;18.598;2023-04-02T12:02:55;101342.28;;;8.31;52.05
57048;BME280;42934;54.294;18.598;2023-04-02T12:05:32;101347.84;;;8.04;51.17
57048;BME280;42934;54.294;18.598;2023-04-02T12:08:22;101356.47;;;8.09;51.57
57048;BME280;42934;54.294;18.598;2023-04-02T12:10:56;101359.09;;;8.10;51.55
57048;BME280;42934;54.294;18.598;2023-04-02T12:13:52;101370.16;;;8.38;51.16
57048;BME280;42934;54.294;18.598;2023-04-02T12:16:27;101380.47;;;8.49;51.44
57048;BME280;42934;54.294;18.598;2023-04-02T12:19:00;101376.22;;;8.40;49.95
57048;BME280;42934;54.294;18.598;2023-04-02T12:21:30;101382.06;;;8.62;49.78
57048;BME280;42934;54.294;18.598;2023-04-02T12:24:00;101370.00;;;8.49;50.21
57048;BME280;42934;54.294;18.598;2023-04-02T12:26:33;101385.75;;;8.46;49.95
57048;BME280;42934;54.294;18.598;2023-04-02T12:29:18;101384.84;;;8.50;49.86
57048;BME280;42934;54.294;18.598;2023-04-02T12:31:52;101393.44;;;8.60;49.81
57048;BME280;42934;54.294;18.598;2023-04-02T12:34:24;101404.44;;;8.86;50.26
57048;BME280;42934;54.294;18.598;2023-04-02T12:36:56;101399.38;;;8.73;49.55
57048;BME280;42934;54.294;18.598;2023-04-02T12:39:26;101400.13;;;8.82;49.43
57048;BME280;42934;54.294;18.598;2023-04-02T12:41:56;101402.16;;;8.62;48.55
57048;BME280;42934;54.294;18.598;2023-04-02T12:44:26;101407.41;;;8.56;49.92
57048;BME280;42934;54.294;18.598;2023-04-02T12:46:58;101417.97;;;8.51;49.53
57048;BME280;42934;54.294;18.598;2023-04-02T12:49:32;101419.94;;;8.28;50.32
57048;BME280;42934;54.294;18.598;2023-04-02T12:52:06;101425.59;;;7.86;50.95
57048;BME280;42934;54.294;18.598;2023-04-02T12:54:42;101432.63;;;7.80;51.92
57048;BME280;42934;54.294;18.598;2023-04-02T12:57:32;101424.88;;;7.67;50.73
57048;BME280;42934;54.294;18.598;2023-04-02T13:00:34;101424.88;;;7.64;49.67
57048;BME280;42934;54.294;18.598;2023-04-02T13:03:21;101414.22;;;7.90;50.49
57048;BME280;42934;54.294;18.598;2023-04-02T13:05:52;101425.47;;;8.00;51.42
57048;BME280;42934;54.294;18.598;2023-04-02T13:08:25;101435.75;;;8.17;50.43
57048;BME280;42934;54.294;18.598;2023-04-02T13:10:58;101428.84;;;8.10;48.71
57048;BME280;42934;54.294;18.598;2023-04-02T13:13:31;101437.47;;;8.19;49.29
57048;BME280;42934;54.294;18.598;2023-04-02T13:16:05;101433.84;;;8.31;49.71
57048;BME280;42934;54.294;18.598;2023-04-02T13:18:36;101420.72;;;8.36;49.79
57048;BME280;42934;54.294;18.598;2023-04-02T13:21:20;101432.91;;;8.40;49.71
57048;BME280;42934;54.294;18.598;2023-04-02T13:23:51;101415.75;;;8.11;49.29
57048;BME280;42934;54.294;18.598;2023-04-02T13:26:21;101443.38;;;8.41;49.26
57048;BME280;42934;54.294;18.598;2023-04-02T13:28:57;101447.69;;;8.46;49.52
57048;BME280;42934;54.294;18.598;2023-04-02T13:31:29;101451.28;;;8.35;49.49
57048;BME280;42934;54.294;18.598;2023-04-02T13:33:59;101446.19;;;8.22;49.80
57048;BME280;42934;54.294;18.598;2023-04-02T13:36:29;101447.91;;;8.23;50.19
57048;BME280;42934;54.294;18.598;2023-04-02T13:38:58;101460.88;;;8.32;49.96
57048;BME280;42934;54.294;18.598;2023-04-02T13:41:29;101461.56;;;8.52;50.22
57048;BME280;42934;54.294;18.598;2023-04-02T13:44:00;101464.22;;;8.49;50.00
57048;BME280;42934;54.294;18.598;2023-04-02T13:46:32;101471.13;;;8.56;49.42